Decoded Metar for ULMM (MURMANSK in RUSSIA) (IATA:MMK) | Meteo·Mobile Aviation Weather
aviador You're here:

ULMM Decoded Metar

MURMANSK in RUSSIA
Report Time2019-07-22 01:30:00
UTC Time2019-07-22 02:09:55
Flight Rules vfr VFR
Wind080° at 2 kt
W.Decomp.*RWY 13: 0.8 kt HW 1.8 kt LCW
Visibility9000 m
Phenomena:N/A
Clouds:N/A
CeilingNone
Temp10°C (ISA -5)
Dew Point10°C (100% RH)
AAT9.3°C
QNH1017 hPa
Density Alt-361 ft
Elevation167 ft
Report Wrong Elevation
Raw Report
ULMM 220130Z 08001MPS 9000 NSC 10/10 Q1017 R31/090070 NOSIG RMK
QFE755=

Extra information for ULMM:More info

Metar Taf Metar & Taf Last 4 Metars F.Rules Stats Wind Profile Meteogram Temp Stats Airport Information Weather charts Add Link Nearby VenuesMetar ALERT Operation Metar Decoded Social comments